Time;durP1;ratioP1;P1;durP2;ratioP2;P2;SDS_P1;SDS_P2;PMS_P1;PMS_P2;Temp;Humidity;BMP_temperature;BMP_pressure;BME280_temperature;BME280_humidity;BME280_pressure;Samples;Min_cycle;Max_cycle;Signal;HPM_P1;HPM_P2
2023/05/27 00:01:18;;;;;;;12.35;5.38;;;13.10;71.20;;;;;;5043185;28;20919;-76
2023/05/27 00:03:46;;;;;;;8.45;4.65;;;13.00;71.20;;;;;;5042323;28;20482;-76
2023/05/27 00:06:13;;;;;;;9.05;4.70;;;13.00;71.30;;;;;;5041812;28;20429;-77
2023/05/27 00:08:39;;;;;;;8.15;4.60;;;13.00;71.80;;;;;;5043140;28;20428;-76
2023/05/27 00:11:06;;;;;;;10.88;4.75;;;12.90;71.80;;;;;;5040273;28;20440;-76
2023/05/27 00:13:33;;;;;;;11.52;4.78;;;12.90;72.00;;;;;;5040539;28;20413;-76
2023/05/27 00:16:01;;;;;;;9.07;4.93;;;12.90;72.10;;;;;;5041877;28;20725;-76
2023/05/27 00:18:28;;;;;;;10.73;4.85;;;12.90;72.30;;;;;;5046699;28;20444;-76
2023/05/27 00:20:54;;;;;;;8.77;4.10;;;12.80;72.40;;;;;;5045662;28;20441;-77
2023/05/27 00:23:21;;;;;;;8.20;4.40;;;12.90;72.30;;;;;;5046534;28;20519;-76
2023/05/27 00:25:48;;;;;;;10.33;4.70;;;12.80;72.50;;;;;;5047516;28;20583;-75
2023/05/27 00:28:15;;;;;;;9.73;4.50;;;12.80;72.90;;;;;;5047004;28;20548;-75
2023/05/27 00:30:41;;;;;;;7.97;4.80;;;12.80;73.30;;;;;;5046279;28;20459;-75
2023/05/27 00:33:09;;;;;;;11.73;5.30;;;12.80;72.50;;;;;;5046905;28;20433;-74
2023/05/27 00:35:36;;;;;;;11.13;5.30;;;12.70;72.40;;;;;;5043698;28;20531;-77
2023/05/27 00:38:05;;;;;;;10.50;5.18;;;12.70;73.50;;;;;;5046189;28;20433;-76
2023/05/27 00:40:33;;;;;;;11.02;5.18;;;12.60;73.50;;;;;;5035056;28;20425;-76
2023/05/27 00:42:59;;;;;;;10.77;5.30;;;12.60;74.20;;;;;;5046239;28;20413;-76
2023/05/27 00:45:26;;;;;;;11.43;4.87;;;12.60;74.30;;;;;;5045713;28;20506;-76
2023/05/27 00:47:53;;;;;;;9.40;4.90;;;12.60;74.60;;;;;;5046514;28;20692;-76
2023/05/27 00:50:21;;;;;;;8.35;4.80;;;12.60;74.80;;;;;;5046623;28;20433;-76
2023/05/27 00:52:48;;;;;;;8.18;5.15;;;12.60;74.70;;;;;;5046727;28;20885;-75
2023/05/27 00:55:15;;;;;;;10.15;5.22;;;12.60;75.20;;;;;;5057672;28;20421;-76
2023/05/27 00:57:43;;;;;;;10.38;5.18;;;12.60;75.00;;;;;;5045134;28;20783;-76
2023/05/27 01:00:11;;;;;;;12.30;4.90;;;12.60;75.50;;;;;;5045275;28;20489;-76
2023/05/27 01:02:41;;;;;;;9.73;5.40;;;12.60;74.90;;;;;;5042822;28;20436;-75
2023/05/27 01:05:08;;;;;;;10.25;4.90;;;12.50;74.30;;;;;;5045707;28;20432;-76
2023/05/27 01:07:48;;;;;;;9.80;4.70;;;12.50;75.10;;;;;;5045104;28;20787;-76
2023/05/27 01:10:23;;;;;;;8.60;4.80;;;12.40;75.40;;;;;;5043801;28;20516;-76
2023/05/27 01:13:00;;;;;;;11.10;5.00;;;12.40;75.90;;;;;;5046049;28;20417;-76
2023/05/27 01:15:27;;;;;;;9.77;5.03;;;12.30;75.80;;;;;;5040593;28;20440;-75
2023/05/27 01:17:57;;;;;;;11.45;5.30;;;12.30;76.40;;;;;;5043843;28;20896;-76
2023/05/27 01:20:24;;;;;;;9.75;5.50;;;12.30;76.20;;;;;;5046599;28;20425;-75
2023/05/27 01:22:53;;;;;;;9.70;5.00;;;12.30;76.20;;;;;;5050181;28;20448;-76
2023/05/27 01:25:21;;;;;;;12.43;5.30;;;12.20;76.60;;;;;;5045383;28;20435;-76
2023/05/27 01:27:47;;;;;;;10.95;5.45;;;12.20;76.50;;;;;;5045583;28;20425;-75
2023/05/27 01:30:14;;;;;;;10.82;5.65;;;12.20;77.70;;;;;;5044023;28;20441;-76
2023/05/27 01:32:46;;;;;;;10.05;4.80;;;12.10;77.60;;;;;;5043497;28;20433;-75
2023/05/27 01:35:22;;;;;;;10.10;5.45;;;12.10;77.60;;;;;;5039706;28;20436;-75
2023/05/27 01:37:55;;;;;;;9.57;5.40;;;12.00;77.40;;;;;;5043929;28;20437;-75
2023/05/27 01:40:22;;;;;;;9.98;5.25;;;12.10;77.60;;;;;;5049442;28;20780;-75
2023/05/27 01:42:50;;;;;;;10.82;5.22;;;12.00;77.70;;;;;;5049028;28;20445;-76
2023/05/27 01:45:17;;;;;;;12.65;5.90;;;12.00;78.40;;;;;;5059089;28;20425;-74
2023/05/27 01:47:44;;;;;;;11.20;5.05;;;12.00;78.20;;;;;;5044246;28;20445;-75
2023/05/27 01:50:11;;;;;;;12.23;5.63;;;12.00;78.50;;;;;;5038387;28;20433;-75
2023/05/27 01:52:37;;;;;;;12.32;4.65;;;12.00;79.10;;;;;;5045056;28;20436;-74
2023/05/27 01:55:07;;;;;;;9.48;5.00;;;12.00;78.80;;;;;;5044707;28;20444;-74
2023/05/27 01:57:34;;;;;;;10.98;6.15;;;12.00;79.60;;;;;;5042605;28;20421;-75
2023/05/27 02:00:01;;;;;;;7.70;4.87;;;12.00;80.00;;;;;;5065184;28;20912;-75
2023/05/27 02:02:27;;;;;;;9.05;5.10;;;11.90;79.90;;;;;;5053835;28;20496;-76
2023/05/27 02:04:54;;;;;;;13.93;6.00;;;11.90;79.90;;;;;;5059224;28;20430;-75
2023/05/27 02:07:22;;;;;;;10.32;5.15;;;11.80;80.80;;;;;;5051034;28;20818;-75
2023/05/27 02:09:49;;;;;;;9.88;5.30;;;11.80;81.00;;;;;;5045870;28;20803;-75
2023/05/27 02:12:17;;;;;;;9.77;5.20;;;11.80;81.40;;;;;;5044465;28;20452;-75
2023/05/27 02:14:44;;;;;;;11.82;5.80;;;11.80;81.20;;;;;;5040851;28;20883;-75
2023/05/27 02:17:11;;;;;;;11.18;5.80;;;11.70;81.10;;;;;;5042412;28;20461;-75
2023/05/27 02:19:38;;;;;;;14.13;5.50;;;11.70;81.90;;;;;;5045800;28;20512;-76
2023/05/27 02:22:05;;;;;;;12.00;5.47;;;11.70;82.10;;;;;;5046069;28;20417;-75
2023/05/27 02:24:31;;;;;;;10.63;4.90;;;11.70;82.00;;;;;;5045133;28;20433;-76
2023/05/27 02:26:58;;;;;;;11.88;6.00;;;11.70;82.60;;;;;;5044171;28;20417;-76
2023/05/27 02:29:26;;;;;;;8.25;5.18;;;11.70;83.00;;;;;;5043728;28;20441;-76
2023/05/27 02:31:53;;;;;;;8.00;4.77;;;11.70;82.80;;;;;;5043248;28;20811;-76
2023/05/27 02:34:20;;;;;;;9.55;5.10;;;11.60;83.20;;;;;;5044862;28;20449;-76
2023/05/27 02:36:47;;;;;;;10.65;5.20;;;11.60;83.30;;;;;;5052541;28;20432;-76
2023/05/27 02:39:13;;;;;;;12.57;5.30;;;11.60;83.40;;;;;;5054356;28;20436;-76
2023/05/27 02:41:40;;;;;;;11.13;4.85;;;11.60;83.90;;;;;;5044580;28;20935;-76
2023/05/27 02:44:07;;;;;;;9.95;5.72;;;11.50;83.80;;;;;;5054651;28;20512;-76
2023/05/27 02:46:35;;;;;;;12.35;5.93;;;11.50;84.40;;;;;;5045999;28;20939;-76
2023/05/27 02:49:01;;;;;;;8.00;4.80;;;11.50;84.10;;;;;;5049955;28;20440;-76
2023/05/27 02:51:29;;;;;;;9.82;5.68;;;11.50;84.70;;;;;;5043928;28;20452;-76
2023/05/27 02:53:56;;;;;;;13.45;5.68;;;11.50;84.50;;;;;;5043955;28;20519;-76
2023/05/27 02:56:25;;;;;;;9.67;5.03;;;11.40;84.50;;;;;;5042289;28;20437;-76
2023/05/27 02:58:52;;;;;;;10.07;4.60;;;11.40;85.20;;;;;;5043108;28;20445;-76
2023/05/27 03:01:19;;;;;;;10.67;5.40;;;11.40;85.20;;;;;;5042989;28;20856;-75
2023/05/27 03:03:47;;;;;;;10.60;5.23;;;11.40;85.30;;;;;;5040903;28;20504;-75
2023/05/27 03:06:14;;;;;;;8.70;4.72;;;11.30;85.70;;;;;;5043420;28;20776;-75
2023/05/27 03:08:41;;;;;;;11.27;5.00;;;11.30;86.20;;;;;;5056165;28;20412;-75
2023/05/27 03:11:08;;;;;;;10.45;5.00;;;11.30;86.20;;;;;;5040215;28;20427;-76
2023/05/27 03:13:34;;;;;;;9.27;4.57;;;11.30;86.70;;;;;;5053885;28;20431;-76
2023/05/27 03:18:41;;;;;;;10.73;5.30;;;11.20;86.80;;;;;;5036308;28;20520;-75
2023/05/27 03:21:09;;;;;;;10.88;4.80;;;11.20;87.20;;;;;;5038631;28;20429;-76
2023/05/27 03:23:36;;;;;;;11.57;5.25;;;11.20;87.00;;;;;;5051290;28;20494;-76
2023/05/27 03:26:02;;;;;;;8.75;5.50;;;11.20;87.60;;;;;;5048039;28;20429;-76
2023/05/27 03:28:29;;;;;;;9.80;4.63;;;11.20;87.30;;;;;;5047576;28;20923;-76
2023/05/27 03:30:56;;;;;;;11.73;5.13;;;11.20;87.30;;;;;;5047101;28;20470;-76
2023/05/27 03:33:23;;;;;;;12.80;5.00;;;11.20;87.50;;;;;;5047834;28;20433;-76
2023/05/27 03:35:50;;;;;;;13.45;5.43;;;11.20;87.40;;;;;;5048204;28;20425;-76
2023/05/27 03:38:18;;;;;;;10.52;5.20;;;11.20;87.20;;;;;;5048342;28;20788;-76
2023/05/27 03:40:45;;;;;;;10.57;5.00;;;11.10;87.10;;;;;;5047637;28;20433;-76
2023/05/27 03:43:12;;;;;;;8.85;4.70;;;11.10;88.00;;;;;;5048618;28;20568;-77
2023/05/27 03:45:39;;;;;;;10.35;5.25;;;11.00;88.20;;;;;;5047305;28;20433;-77
2023/05/27 03:48:06;;;;;;;11.23;5.70;;;11.10;88.80;;;;;;5045524;28;20708;-76
2023/05/27 03:50:34;;;;;;;12.63;5.00;;;11.00;89.00;;;;;;5047584;28;20492;-76
2023/05/27 03:53:00;;;;;;;9.25;4.90;;;11.00;88.90;;;;;;5047210;28;20796;-76
2023/05/27 03:55:28;;;;;;;9.32;5.20;;;11.00;88.80;;;;;;5048486;28;20444;-76
2023/05/27 03:57:55;;;;;;;10.93;5.50;;;11.00;89.10;;;;;;5048224;28;20425;-76
2023/05/27 04:00:22;;;;;;;11.23;5.37;;;11.00;88.80;;;;;;5046776;28;20521;-76
2023/05/27 04:02:49;;;;;;;10.23;5.80;;;11.00;89.50;;;;;;5047740;28;20429;-76
2023/05/27 04:05:17;;;;;;;11.53;5.50;;;11.00;88.50;;;;;;5048195;28;20429;-77
2023/05/27 04:07:43;;;;;;;10.43;5.15;;;10.90;88.80;;;;;;5048070;28;20888;-77
2023/05/27 04:10:11;;;;;;;10.02;5.60;;;10.90;88.90;;;;;;5047781;28;20417;-76
2023/05/27 04:12:39;;;;;;;14.52;5.47;;;10.90;89.00;;;;;;5047608;28;20848;-76
2023/05/27 04:15:08;;;;;;;9.73;4.60;;;11.00;88.90;;;;;;5044328;28;20433;-77
2023/05/27 04:17:35;;;;;;;12.38;5.70;;;10.90;89.20;;;;;;5042418;28;20903;-78
2023/05/27 04:20:08;;;;;;;12.27;5.40;;;11.00;89.50;;;;;;5048240;28;20422;-76
2023/05/27 04:22:36;;;;;;;11.50;5.15;;;11.00;89.20;;;;;;5048792;28;20418;-76
2023/05/27 04:25:03;;;;;;;12.52;5.47;;;11.00;88.90;;;;;;5046335;28;20815;-77
2023/05/27 04:27:29;;;;;;;10.50;4.80;;;11.00;89.30;;;;;;5047799;28;20764;-76
2023/05/27 04:29:58;;;;;;;10.23;4.82;;;11.00;89.90;;;;;;5046824;28;20433;-76
2023/05/27 04:32:27;;;;;;;13.45;5.70;;;11.00;89.60;;;;;;5042404;28;20432;-76
2023/05/27 04:34:53;;;;;;;11.80;5.55;;;11.00;90.00;;;;;;5048066;28;20915;-76
2023/05/27 04:37:20;;;;;;;10.97;5.30;;;11.00;90.10;;;;;;5048197;28;20504;-76
2023/05/27 04:39:47;;;;;;;11.07;5.75;;;11.00;90.10;;;;;;5046093;28;20421;-76
2023/05/27 04:42:15;;;;;;;9.82;5.25;;;11.00;89.70;;;;;;5048908;28;20452;-76
2023/05/27 04:44:42;;;;;;;9.90;5.20;;;11.00;89.80;;;;;;5060845;28;20429;-75
2023/05/27 04:47:10;;;;;;;11.50;6.32;;;11.10;89.90;;;;;;5046844;28;20429;-76
2023/05/27 04:49:37;;;;;;;10.63;5.53;;;11.10;89.20;;;;;;5048082;28;20410;-76
2023/05/27 04:52:06;;;;;;;12.30;5.50;;;11.10;88.40;;;;;;5048030;28;20433;-76
2023/05/27 04:54:33;;;;;;;10.93;5.40;;;11.10;88.70;;;;;;5048668;28;20424;-77
2023/05/27 04:57:00;;;;;;;10.52;5.13;;;11.10;88.80;;;;;;5046644;28;20851;-76
2023/05/27 04:59:35;;;;;;;9.98;5.38;;;11.20;88.40;;;;;;5047644;28;20427;-76
2023/05/27 05:02:10;;;;;;;12.23;5.93;;;11.20;88.50;;;;;;5038184;28;20984;-76
2023/05/27 05:04:38;;;;;;;12.38;6.00;;;11.20;88.90;;;;;;5052412;28;20405;-76
2023/05/27 05:07:05;;;;;;;9.52;5.28;;;11.20;89.70;;;;;;5051645;28;20459;-75
2023/05/27 05:09:32;;;;;;;10.13;5.47;;;11.20;88.40;;;;;;5051314;28;20444;-76
2023/05/27 05:11:59;;;;;;;8.10;5.13;;;11.20;89.60;;;;;;5050479;28;20433;-75
2023/05/27 05:14:25;;;;;;;11.05;5.15;;;11.20;89.20;;;;;;5051458;28;20433;-76
2023/05/27 05:16:52;;;;;;;9.70;5.53;;;11.30;89.80;;;;;;5042697;28;20801;-78
2023/05/27 05:19:19;;;;;;;11.45;5.30;;;11.30;89.40;;;;;;5050527;28;20438;-76
2023/05/27 05:21:47;;;;;;;11.23;5.63;;;11.30;89.30;;;;;;5051224;28;20440;-76
2023/05/27 05:24:14;;;;;;;11.88;5.93;;;11.40;89.40;;;;;;5051195;28;20413;-77
2023/05/27 05:26:41;;;;;;;11.98;5.47;;;11.40;89.10;;;;;;5050481;28;20421;-77
2023/05/27 05:29:08;;;;;;;7.28;5.22;;;11.40;88.10;;;;;;5051168;28;20428;-75
2023/05/27 05:31:34;;;;;;;9.48;5.70;;;11.40;88.90;;;;;;5047496;28;20888;-75
2023/05/27 05:34:01;;;;;;;10.68;5.68;;;11.50;88.80;;;;;;5054665;28;20448;-77
2023/05/27 05:36:28;;;;;;;13.20;5.72;;;11.50;88.20;;;;;;5052968;28;20428;-76
2023/05/27 05:38:56;;;;;;;10.05;5.60;;;11.50;88.60;;;;;;5049646;28;20437;-76
2023/05/27 05:41:23;;;;;;;10.25;5.78;;;11.50;88.90;;;;;;5051422;28;20425;-76
2023/05/27 05:43:49;;;;;;;10.33;5.67;;;11.60;89.30;;;;;;5052134;28;20499;-77
2023/05/27 05:46:16;;;;;;;11.30;5.03;;;11.60;88.90;;;;;;5056468;28;20445;-76
2023/05/27 05:48:43;;;;;;;13.15;6.50;;;11.70;88.40;;;;;;5052395;28;20433;-77
2023/05/27 05:51:09;;;;;;;11.23;6.63;;;11.70;88.20;;;;;;5057613;28;20483;-76
2023/05/27 05:53:36;;;;;;;13.40;5.90;;;11.70;88.80;;;;;;5057403;28;20433;-76
2023/05/27 05:56:05;;;;;;;11.25;5.30;;;11.80;88.70;;;;;;5056792;28;20444;-77
2023/05/27 05:58:31;;;;;;;10.43;5.60;;;11.80;88.00;;;;;;5058207;28;20433;-75
2023/05/27 06:00:58;;;;;;;11.57;5.60;;;11.90;85.80;;;;;;5057050;28;20798;-75
2023/05/27 06:03:25;;;;;;;11.30;5.88;;;11.90;85.10;;;;;;5056314;28;21059;-77
2023/05/27 06:05:52;;;;;;;9.38;5.40;;;12.00;85.30;;;;;;5052674;28;20417;-76
2023/05/27 06:08:18;;;;;;;11.15;5.85;;;12.00;84.90;;;;;;5051304;28;20417;-76
2023/05/27 06:10:45;;;;;;;9.35;5.10;;;12.10;82.80;;;;;;5050121;28;20421;-76
2023/05/27 06:13:13;;;;;;;10.60;5.40;;;12.10;81.60;;;;;;5045496;28;20437;-76
2023/05/27 06:15:40;;;;;;;9.85;5.30;;;12.20;81.50;;;;;;5049012;28;20440;-77
2023/05/27 06:18:07;;;;;;;10.55;5.97;;;12.20;81.60;;;;;;5041441;28;21123;-77
2023/05/27 06:20:34;;;;;;;10.65;5.43;;;12.30;81.90;;;;;;5049762;28;20433;-76
2023/05/27 06:23:00;;;;;;;11.35;5.82;;;12.40;79.70;;;;;;5050237;28;20426;-76
2023/05/27 06:25:27;;;;;;;11.15;5.68;;;12.40;80.20;;;;;;5049916;28;20839;-78
2023/05/27 06:27:54;;;;;;;8.02;5.28;;;12.50;81.60;;;;;;5044040;28;20867;-76
2023/05/27 06:30:22;;;;;;;9.30;6.38;;;12.50;82.10;;;;;;5047448;28;20811;-75
2023/05/27 06:32:49;;;;;;;10.48;5.40;;;12.60;80.50;;;;;;5050011;28;20804;-76
2023/05/27 06:35:15;;;;;;;9.90;5.10;;;12.70;78.90;;;;;;5044006;28;20527;-76
2023/05/27 06:37:42;;;;;;;10.63;5.43;;;12.70;79.00;;;;;;5046016;28;20906;-76
2023/05/27 06:40:10;;;;;;;9.98;5.10;;;12.90;76.50;;;;;;5048514;28;20433;-76
2023/05/27 06:42:37;;;;;;;11.77;6.25;;;12.90;76.80;;;;;;5050128;28;20413;-76
2023/05/27 06:45:05;;;;;;;8.32;5.10;;;13.00;76.60;;;;;;5049120;28;20935;-77
2023/05/27 06:47:33;;;;;;;11.60;5.50;;;13.10;76.30;;;;;;5046374;28;20430;-75
2023/05/27 06:49:59;;;;;;;8.15;5.03;;;13.10;75.60;;;;;;5045937;28;20426;-76
2023/05/27 06:52:26;;;;;;;9.43;4.70;;;13.20;74.80;;;;;;5049609;28;20429;-76
2023/05/27 06:54:53;;;;;;;11.75;5.00;;;13.30;75.30;;;;;;5051175;28;20460;-76
2023/05/27 06:57:19;;;;;;;10.18;4.72;;;13.40;74.80;;;;;;5063332;28;20796;-76
2023/05/27 06:59:46;;;;;;;9.85;5.13;;;13.40;74.50;;;;;;5050173;28;20437;-77
2023/05/27 07:02:13;;;;;;;10.60;4.80;;;13.60;74.20;;;;;;5048229;28;20429;-77
2023/05/27 07:04:41;;;;;;;8.70;5.50;;;13.80;73.30;;;;;;5046707;28;20520;-77
2023/05/27 07:07:08;;;;;;;10.75;5.50;;;13.90;72.40;;;;;;5041768;28;20431;-77
2023/05/27 07:09:35;;;;;;;9.27;4.80;;;14.10;71.50;;;;;;5048595;28;20807;-77
2023/05/27 07:12:02;;;;;;;8.75;4.30;;;14.20;71.40;;;;;;5044394;28;20429;-78
2023/05/27 07:14:29;;;;;;;9.40;5.00;;;14.30;70.40;;;;;;5048539;28;20512;-77
2023/05/27 07:16:56;;;;;;;8.10;4.53;;;14.40;70.70;;;;;;5045223;28;20425;-77
2023/05/27 07:19:23;;;;;;;9.38;4.55;;;14.60;69.10;;;;;;5047833;28;20891;-77
2023/05/27 07:21:51;;;;;;;9.45;4.80;;;14.70;67.80;;;;;;5049042;28;20417;-77
2023/05/27 07:24:18;;;;;;;8.07;4.57;;;14.90;67.10;;;;;;5047209;28;20435;-77
2023/05/27 07:26:44;;;;;;;11.03;5.63;;;15.00;67.50;;;;;;5047102;28;20433;-78
2023/05/27 07:29:11;;;;;;;7.50;5.07;;;15.10;67.00;;;;;;5048147;28;20899;-77
2023/05/27 07:31:38;;;;;;;8.33;4.90;;;15.30;66.00;;;;;;5047182;28;20943;-77
2023/05/27 07:34:05;;;;;;;8.13;4.50;;;15.30;65.70;;;;;;5048616;28;20433;-77
2023/05/27 07:36:32;;;;;;;8.70;4.10;;;15.40;65.70;;;;;;5047869;28;21214;-77
2023/05/27 07:39:00;;;;;;;9.80;4.88;;;15.60;65.40;;;;;;5047275;28;20445;-78
2023/05/27 07:41:29;;;;;;;9.25;4.40;;;15.80;64.70;;;;;;5054031;28;20464;-77
2023/05/27 07:43:56;;;;;;;9.73;4.70;;;16.00;63.20;;;;;;5038856;28;20424;-77
2023/05/27 07:46:23;;;;;;;8.50;4.50;;;16.20;62.70;;;;;;5043791;28;20936;-76
2023/05/27 07:48:50;;;;;;;8.18;4.50;;;16.30;61.80;;;;;;5045748;28;20433;-78
2023/05/27 07:51:16;;;;;;;8.82;4.25;;;16.40;61.20;;;;;;5047604;28;20440;-77
2023/05/27 07:53:43;;;;;;;7.85;4.38;;;16.50;61.20;;;;;;5034492;28;20431;-78
2023/05/27 07:56:11;;;;;;;8.87;4.30;;;16.60;61.10;;;;;;5046353;28;20587;-76
2023/05/27 07:58:38;;;;;;;9.77;4.85;;;16.90;60.60;;;;;;5048517;28;21032;-77
2023/05/27 08:01:05;;;;;;;8.57;4.18;;;17.00;58.70;;;;;;5046838;28;20445;-77
2023/05/27 08:03:32;;;;;;;10.27;4.43;;;17.10;58.60;;;;;;5047729;28;20915;-77
2023/05/27 08:05:58;;;;;;;8.17;4.53;;;17.20;58.90;;;;;;5047463;28;20429;-77
2023/05/27 08:08:25;;;;;;;11.10;4.73;;;17.40;57.30;;;;;;5048281;28;20425;-78
2023/05/27 08:10:52;;;;;;;8.23;4.10;;;17.50;56.30;;;;;;5046634;28;20456;-77
2023/05/27 08:13:20;;;;;;;7.22;4.00;;;17.60;56.00;;;;;;5046780;28;20518;-76
2023/05/27 08:15:47;;;;;;;6.70;4.10;;;17.70;55.90;;;;;;5046169;28;20867;-78
2023/05/27 08:18:14;;;;;;;8.13;4.03;;;17.90;55.80;;;;;;5047897;28;20433;-77
2023/05/27 08:20:41;;;;;;;6.97;4.32;;;18.10;54.90;;;;;;5047788;28;20429;-77
2023/05/27 08:23:08;;;;;;;7.13;4.00;;;18.40;53.00;;;;;;5047648;28;20433;-77
2023/05/27 08:25:34;;;;;;;11.18;4.70;;;18.40;52.10;;;;;;5047368;28;20439;-77
2023/05/27 08:28:02;;;;;;;9.20;4.80;;;18.50;52.30;;;;;;5044736;28;20436;-78
2023/05/27 08:30:31;;;;;;;6.82;4.50;;;18.70;52.20;;;;;;5047940;28;20421;-77
2023/05/27 08:32:58;;;;;;;7.22;4.22;;;18.80;52.10;;;;;;5043116;28;20434;-76
2023/05/27 08:35:25;;;;;;;9.35;4.50;;;18.80;51.30;;;;;;5048340;28;20441;-77
2023/05/27 08:37:52;;;;;;;7.00;3.88;;;18.90;51.50;;;;;;5049814;28;20493;-76
2023/05/27 08:40:20;;;;;;;7.93;4.38;;;19.10;50.60;;;;;;5051552;28;20485;-76
2023/05/27 08:42:48;;;;;;;8.75;4.20;;;19.30;50.50;;;;;;5043301;28;20461;-76
2023/05/27 08:45:15;;;;;;;9.35;4.50;;;19.60;49.70;;;;;;5046672;28;20495;-77
2023/05/27 08:47:44;;;;;;;7.70;4.20;;;19.90;48.40;;;;;;5050554;28;20436;-76
2023/05/27 08:50:11;;;;;;;7.75;4.35;;;20.10;47.40;;;;;;5049077;28;20476;-77
2023/05/27 08:52:45;;;;;;;7.72;3.90;;;20.20;47.30;;;;;;5051493;28;20524;-77
2023/05/27 08:55:16;;;;;;;7.90;3.80;;;20.40;47.40;;;;;;5051923;28;20486;-76
2023/05/27 08:57:45;;;;;;;7.43;4.03;;;20.50;46.80;;;;;;5064655;28;20471;-77
2023/05/27 09:00:13;;;;;;;7.30;3.87;;;20.70;46.40;;;;;;5050693;28;20492;-76
2023/05/27 09:02:40;;;;;;;9.20;4.50;;;20.90;45.20;;;;;;5043068;28;20766;-75
2023/05/27 09:05:09;;;;;;;5.90;3.60;;;20.90;43.30;;;;;;5051711;28;20441;-76
2023/05/27 09:07:37;;;;;;;6.60;3.95;;;20.90;44.20;;;;;;5048328;28;20448;-76
2023/05/27 09:10:06;;;;;;;8.50;3.97;;;21.00;44.70;;;;;;5064867;28;20620;-76
2023/05/27 09:12:33;;;;;;;7.80;4.13;;;21.10;44.50;;;;;;5061531;28;20514;-76
2023/05/27 09:15:00;;;;;;;7.80;4.03;;;21.30;43.80;;;;;;5061245;28;20431;-75
2023/05/27 09:17:27;;;;;;;7.47;3.90;;;21.50;44.50;;;;;;5086316;22;20434;-76
2023/05/27 09:19:54;;;;;;;8.60;3.80;;;21.70;41.90;;;;;;5060874;28;20515;-76
2023/05/27 09:22:24;;;;;;;7.22;3.85;;;21.80;42.70;;;;;;5062897;28;20411;-76
2023/05/27 09:24:54;;;;;;;8.50;3.50;;;21.90;41.20;;;;;;5064065;28;20990;-77
2023/05/27 09:27:25;;;;;;;6.70;3.60;;;21.90;42.10;;;;;;5065187;28;20982;-77
2023/05/27 09:29:52;;;;;;;5.97;3.58;;;22.10;42.10;;;;;;5063706;28;20435;-77
2023/05/27 09:32:25;;;;;;;7.90;3.90;;;22.30;41.70;;;;;;5063068;28;20447;-76
2023/05/27 09:34:52;;;;;;;6.50;3.65;;;22.60;39.70;;;;;;5065278;28;20532;-76
2023/05/27 09:37:20;;;;;;;6.10;3.30;;;22.70;39.30;;;;;;5064763;28;20924;-77
2023/05/27 09:39:48;;;;;;;6.78;3.50;;;22.70;39.30;;;;;;5064600;28;21012;-76
2023/05/27 09:42:15;;;;;;;6.80;3.70;;;22.80;40.00;;;;;;5065456;28;20428;-76
2023/05/27 09:44:48;;;;;;;8.65;3.40;;;22.90;39.50;;;;;;5064361;28;20518;-76
2023/05/27 09:47:17;;;;;;;6.90;3.75;;;23.00;39.70;;;;;;5054797;28;20603;-76
2023/05/27 09:49:45;;;;;;;6.87;3.67;;;23.20;38.20;;;;;;5064452;28;20428;-76
2023/05/27 09:52:13;;;;;;;6.03;3.60;;;23.40;36.90;;;;;;5065488;28;20943;-77
2023/05/27 09:54:41;;;;;;;7.45;3.45;;;23.30;37.60;;;;;;5063592;28;20498;-77
2023/05/27 09:57:10;;;;;;;7.80;3.33;;;23.50;37.30;;;;;;5065400;28;20680;-77
2023/05/27 09:59:39;;;;;;;7.53;3.50;;;23.60;37.00;;;;;;5063472;28;20427;-77
2023/05/27 10:02:08;;;;;;;6.13;3.40;;;23.70;36.50;;;;;;5064572;28;20463;-77
2023/05/27 10:04:36;;;;;;;6.00;3.40;;;23.90;36.70;;;;;;5058103;28;20902;-77
2023/05/27 10:07:04;;;;;;;7.28;3.88;;;24.10;36.30;;;;;;5065084;28;20484;-77
2023/05/27 10:09:31;;;;;;;5.40;3.03;;;24.20;35.60;;;;;;5064299;28;20416;-76
2023/05/27 10:11:58;;;;;;;4.80;3.10;;;24.40;33.40;;;;;;5065330;28;20585;-76
2023/05/27 10:14:27;;;;;;;7.18;3.90;;;24.30;34.50;;;;;;5061465;28;20427;-77
2023/05/27 10:16:56;;;;;;;5.10;3.33;;;24.40;35.10;;;;;;5063987;28;20420;-77
2023/05/27 10:19:23;;;;;;;6.25;3.38;;;24.60;34.90;;;;;;5083172;28;20466;-76
2023/05/27 10:21:50;;;;;;;5.10;3.00;;;24.80;34.10;;;;;;5083916;28;20418;-77
2023/05/27 10:24:17;;;;;;;5.93;3.10;;;25.00;32.40;;;;;;5084557;28;20421;-77
2023/05/27 10:26:48;;;;;;;5.70;3.30;;;25.10;32.10;;;;;;5084040;28;20810;-77
2023/05/27 10:29:17;;;;;;;5.75;3.13;;;25.20;31.50;;;;;;5082004;28;20833;-78
2023/05/27 10:31:49;;;;;;;5.75;3.40;;;25.50;31.00;;;;;;5085078;28;20414;-78
2023/05/27 10:34:16;;;;;;;6.47;3.10;;;25.60;31.20;;;;;;5075565;28;20548;-75
2023/05/27 10:36:45;;;;;;;5.20;3.20;;;25.70;30.50;;;;;;5083956;28;20414;-76
2023/05/27 10:39:17;;;;;;;6.07;3.10;;;25.90;30.40;;;;;;5083156;28;20429;-76
2023/05/27 10:41:50;;;;;;;5.40;3.00;;;26.00;30.30;;;;;;5084548;28;20410;-76
2023/05/27 10:44:26;;;;;;;5.80;3.30;;;26.00;30.20;;;;;;5082798;28;20453;-76
2023/05/27 10:47:01;;;;;;;6.35;3.15;;;26.00;30.70;;;;;;5081082;28;20473;-76
2023/05/27 10:49:35;;;;;;;5.45;3.20;;;26.00;29.70;;;;;;5079413;28;20886;-76
2023/05/27 10:52:06;;;;;;;5.97;2.80;;;26.00;29.60;;;;;;5084961;28;20495;-76
2023/05/27 10:54:35;;;;;;;5.47;3.00;;;26.10;30.20;;;;;;5084869;28;20798;-76
2023/05/27 10:57:03;;;;;;;4.68;2.80;;;26.20;30.00;;;;;;5083590;28;20433;-77
2023/05/27 10:59:40;;;;;;;5.35;3.25;;;26.30;29.60;;;;;;5082792;28;20482;-77
2023/05/27 11:02:08;;;;;;;3.92;3.00;;;26.50;29.40;;;;;;5082205;28;20722;-77
2023/05/27 11:04:35;;;;;;;4.43;3.00;;;26.60;28.30;;;;;;5076355;28;20864;-77
2023/05/27 11:07:03;;;;;;;5.78;3.10;;;26.50;28.50;;;;;;5084692;28;20410;-77
2023/05/27 11:09:30;;;;;;;6.07;3.17;;;26.50;29.00;;;;;;5083196;28;20417;-77
2023/05/27 11:11:57;;;;;;;6.18;3.05;;;26.60;28.50;;;;;;5083086;28;20799;-77
2023/05/27 11:14:24;;;;;;;4.15;3.00;;;26.80;28.30;;;;;;5082407;28;20504;-76
2023/05/27 11:16:51;;;;;;;6.00;3.28;;;26.70;27.80;;;;;;5082449;28;20502;-77
2023/05/27 11:19:21;;;;;;;5.10;3.20;;;26.60;28.20;;;;;;5082715;28;20569;-76
2023/05/27 11:21:48;;;;;;;6.45;3.10;;;26.70;28.10;;;;;;5084200;28;20508;-77
2023/05/27 11:24:16;;;;;;;5.80;2.80;;;27.00;27.80;;;;;;5083292;28;20544;-77
2023/05/27 11:26:45;;;;;;;4.90;2.90;;;27.20;28.10;;;;;;5082736;28;20949;-76
2023/05/27 11:29:12;;;;;;;4.63;3.60;;;27.20;28.10;;;;;;5082746;28;20444;-76
2023/05/27 11:31:40;;;;;;;5.18;2.95;;;27.30;27.50;;;;;;5083133;28;20733;-77
2023/05/27 11:34:13;;;;;;;4.03;2.90;;;27.40;27.60;;;;;;5083658;28;20522;-77
2023/05/27 11:36:44;;;;;;;4.65;3.10;;;27.50;27.60;;;;;;5082940;28;20414;-77
2023/05/27 11:39:13;;;;;;;4.73;3.17;;;27.60;27.10;;;;;;5082563;28;20417;-76
2023/05/27 11:41:50;;;;;;;4.38;2.90;;;27.80;27.00;;;;;;5083912;28;20494;-77
2023/05/27 11:44:18;;;;;;;4.53;2.60;;;27.80;25.90;;;;;;5081469;28;21001;-77
2023/05/27 11:46:46;;;;;;;4.07;2.70;;;28.10;26.10;;;;;;5082476;28;20521;-76
2023/05/27 11:49:14;;;;;;;4.75;2.40;;;28.30;25.60;;;;;;5081045;28;20512;-77
2023/05/27 11:51:45;;;;;;;5.55;3.13;;;28.10;24.90;;;;;;5083710;28;20406;-77
2023/05/27 11:54:20;;;;;;;3.65;2.42;;;28.00;25.00;;;;;;5083356;28;20487;-77
2023/05/27 11:56:47;;;;;;;5.05;2.78;;;28.10;25.90;;;;;;5081992;28;20974;-76
2023/05/27 11:59:14;;;;;;;5.25;2.85;;;28.40;25.40;;;;;;5081087;28;20445;-77
2023/05/27 12:01:41;;;;;;;5.28;2.70;;;28.50;25.00;;;;;;5084084;28;20442;-78
2023/05/27 12:04:07;;;;;;;4.90;2.67;;;28.40;25.40;;;;;;5084545;28;20513;-77
2023/05/27 12:06:35;;;;;;;4.55;2.67;;;28.30;24.70;;;;;;5083821;28;20410;-79
2023/05/27 12:09:04;;;;;;;4.13;2.85;;;28.20;25.20;;;;;;5084118;28;20907;-79
2023/05/27 12:11:31;;;;;;;4.28;2.60;;;28.30;25.20;;;;;;5084556;28;20449;-79
2023/05/27 12:13:58;;;;;;;3.88;2.60;;;28.60;24.80;;;;;;5085792;28;20734;-78
2023/05/27 12:16:25;;;;;;;4.15;2.70;;;28.60;25.30;;;;;;5086988;28;20422;-78
2023/05/27 12:18:52;;;;;;;3.58;2.80;;;28.80;24.50;;;;;;5086637;28;20428;-79
2023/05/27 12:21:19;;;;;;;4.32;2.50;;;28.80;25.00;;;;;;5087855;28;20422;-78
2023/05/27 12:23:46;;;;;;;3.25;2.60;;;29.20;24.60;;;;;;5088442;28;20452;-76
2023/05/27 12:26:15;;;;;;;4.18;2.90;;;29.70;24.30;;;;;;5087126;28;20671;-76
2023/05/27 12:28:42;;;;;;;3.80;2.70;;;30.10;23.80;;;;;;5085070;28;20445;-78
2023/05/27 12:31:09;;;;;;;3.65;2.67;;;29.90;23.70;;;;;;5086798;28;20435;-78
2023/05/27 12:33:36;;;;;;;4.40;2.70;;;29.60;23.60;;;;;;5087667;28;20841;-78
2023/05/27 12:36:05;;;;;;;4.20;2.90;;;29.50;23.50;;;;;;5088181;28;20490;-79
2023/05/27 12:38:32;;;;;;;3.92;2.58;;;29.30;23.60;;;;;;5087635;28;20451;-76
2023/05/27 12:40:58;;;;;;;3.40;2.20;;;29.30;23.80;;;;;;5086416;28;20440;-77
2023/05/27 12:43:27;;;;;;;3.85;2.85;;;29.50;24.20;;;;;;5085961;28;20445;-77
2023/05/27 12:45:53;;;;;;;4.30;2.60;;;29.90;23.60;;;;;;5087315;28;20774;-77
2023/05/27 12:48:21;;;;;;;3.78;2.60;;;30.30;23.10;;;;;;5085830;28;20605;-76